sensor_id;sensor_type;location;lat;lon;timestamp;P1;durP1;ratioP1;P2;durP2;ratioP2
10232;SDS011;5161;48.174;11.756;2023-08-06T00:00:08;7.80;;;7.10;;
10232;SDS011;5161;48.174;11.756;2023-08-06T00:02:34;7.50;;;6.87;;
10232;SDS011;5161;48.174;11.756;2023-08-06T00:04:59;6.97;;;6.37;;
10232;SDS011;5161;48.174;11.756;2023-08-06T00:07:25;7.00;;;6.40;;
10232;SDS011;5161;48.174;11.756;2023-08-06T00:09:50;9.43;;;7.27;;
10232;SDS011;5161;48.174;11.756;2023-08-06T00:12:16;7.23;;;6.63;;
10232;SDS011;5161;48.174;11.756;2023-08-06T00:14:42;7.00;;;6.40;;
10232;SDS011;5161;48.174;11.756;2023-08-06T00:17:07;7.40;;;6.80;;
10232;SDS011;5161;48.174;11.756;2023-08-06T00:19:33;6.87;;;6.27;;
10232;SDS011;5161;48.174;11.756;2023-08-06T00:21:59;6.10;;;5.70;;
10232;SDS011;5161;48.174;11.756;2023-08-06T00:24:24;5.90;;;5.50;;
10232;SDS011;5161;48.174;11.756;2023-08-06T00:26:51;6.87;;;5.93;;
10232;SDS011;5161;48.174;11.756;2023-08-06T00:29:16;6.67;;;5.73;;
10232;SDS011;5161;48.174;11.756;2023-08-06T00:31:42;6.20;;;5.00;;
10232;SDS011;5161;48.174;11.756;2023-08-06T00:34:07;6.03;;;5.53;;
10232;SDS011;5161;48.174;11.756;2023-08-06T00:36:33;5.70;;;5.30;;
10232;SDS011;5161;48.174;11.756;2023-08-06T00:38:58;6.23;;;5.50;;
10232;SDS011;5161;48.174;11.756;2023-08-06T00:41:24;5.93;;;5.43;;
10232;SDS011;5161;48.174;11.756;2023-08-06T00:43:50;5.90;;;5.37;;
10232;SDS011;5161;48.174;11.756;2023-08-06T00:46:15;6.20;;;5.70;;
10232;SDS011;5161;48.174;11.756;2023-08-06T00:48:41;6.03;;;5.50;;
10232;SDS011;5161;48.174;11.756;2023-08-06T00:51:08;5.93;;;5.43;;
10232;SDS011;5161;48.174;11.756;2023-08-06T00:53:35;5.63;;;5.20;;
10232;SDS011;5161;48.174;11.756;2023-08-06T00:56:02;5.83;;;5.43;;
10232;SDS011;5161;48.174;11.756;2023-08-06T00:58:28;6.10;;;5.57;;
10232;SDS011;5161;48.174;11.756;2023-08-06T01:00:55;5.83;;;5.33;;
10232;SDS011;5161;48.174;11.756;2023-08-06T01:03:20;6.23;;;5.63;;
10232;SDS011;5161;48.174;11.756;2023-08-06T01:05:47;5.90;;;5.50;;
10232;SDS011;5161;48.174;11.756;2023-08-06T01:14:12;5.00;;;4.60;;
10232;SDS011;5161;48.174;11.756;2023-08-06T01:16:49;5.13;;;4.53;;
10232;SDS011;5161;48.174;11.756;2023-08-06T01:19:17;4.43;;;3.97;;
10232;SDS011;5161;48.174;11.756;2023-08-06T01:21:43;4.30;;;4.00;;
10232;SDS011;5161;48.174;11.756;2023-08-06T01:24:08;3.77;;;3.57;;
10232;SDS011;5161;48.174;11.756;2023-08-06T01:26:57;4.07;;;3.80;;
10232;SDS011;5161;48.174;11.756;2023-08-06T01:29:34;4.03;;;3.80;;
10232;SDS011;5161;48.174;11.756;2023-08-06T01:32:06;4.60;;;4.30;;
10232;SDS011;5161;48.174;11.756;2023-08-06T01:34:35;4.40;;;4.03;;
10232;SDS011;5161;48.174;11.756;2023-08-06T01:37:03;4.47;;;4.07;;
10232;SDS011;5161;48.174;11.756;2023-08-06T01:39:31;4.63;;;4.33;;
10232;SDS011;5161;48.174;11.756;2023-08-06T01:41:58;4.57;;;4.17;;
10232;SDS011;5161;48.174;11.756;2023-08-06T01:44:24;4.70;;;4.23;;
10232;SDS011;5161;48.174;11.756;2023-08-06T01:46:49;4.67;;;4.27;;
10232;SDS011;5161;48.174;11.756;2023-08-06T01:49:15;4.50;;;4.20;;
10232;SDS011;5161;48.174;11.756;2023-08-06T01:51:40;5.20;;;4.57;;
10232;SDS011;5161;48.174;11.756;2023-08-06T01:54:06;5.43;;;4.07;;
10232;SDS011;5161;48.174;11.756;2023-08-06T01:56:31;4.50;;;4.20;;
10232;SDS011;5161;48.174;11.756;2023-08-06T01:58:57;4.60;;;4.30;;
10232;SDS011;5161;48.174;11.756;2023-08-06T02:01:23;4.70;;;4.40;;
10232;SDS011;5161;48.174;11.756;2023-08-06T02:03:48;4.70;;;4.30;;
10232;SDS011;5161;48.174;11.756;2023-08-06T02:06:14;5.07;;;4.57;;
10232;SDS011;5161;48.174;11.756;2023-08-06T02:08:39;4.90;;;4.50;;
10232;SDS011;5161;48.174;11.756;2023-08-06T02:11:05;4.60;;;4.30;;
10232;SDS011;5161;48.174;11.756;2023-08-06T02:13:30;5.20;;;4.70;;
10232;SDS011;5161;48.174;11.756;2023-08-06T02:15:56;5.00;;;4.50;;
10232;SDS011;5161;48.174;11.756;2023-08-06T02:18:22;4.60;;;4.17;;
10232;SDS011;5161;48.174;11.756;2023-08-06T02:20:57;5.60;;;5.07;;
10232;SDS011;5161;48.174;11.756;2023-08-06T02:23:23;5.03;;;4.63;;
10232;SDS011;5161;48.174;11.756;2023-08-06T02:25:56;5.47;;;5.00;;
10232;SDS011;5161;48.174;11.756;2023-08-06T02:28:30;6.70;;;5.70;;
10232;SDS011;5161;48.174;11.756;2023-08-06T02:30:56;4.90;;;4.60;;
10232;SDS011;5161;48.174;11.756;2023-08-06T02:33:22;5.20;;;4.70;;
10232;SDS011;5161;48.174;11.756;2023-08-06T02:35:48;5.20;;;4.80;;
10232;SDS011;5161;48.174;11.756;2023-08-06T02:38:13;6.13;;;5.40;;
10232;SDS011;5161;48.174;11.756;2023-08-06T02:40:43;5.27;;;4.87;;
10232;SDS011;5161;48.174;11.756;2023-08-06T02:43:12;4.90;;;4.60;;
10232;SDS011;5161;48.174;11.756;2023-08-06T02:45:37;5.17;;;4.67;;
10232;SDS011;5161;48.174;11.756;2023-08-06T02:48:03;5.17;;;4.80;;
10232;SDS011;5161;48.174;11.756;2023-08-06T02:50:29;4.80;;;4.40;;
10232;SDS011;5161;48.174;11.756;2023-08-06T02:52:54;5.00;;;4.53;;
10232;SDS011;5161;48.174;11.756;2023-08-06T02:55:20;4.90;;;4.50;;
10232;SDS011;5161;48.174;11.756;2023-08-06T02:57:46;4.70;;;4.30;;
10232;SDS011;5161;48.174;11.756;2023-08-06T03:00:11;4.80;;;4.40;;
10232;SDS011;5161;48.174;11.756;2023-08-06T03:02:37;4.30;;;4.00;;
10232;SDS011;5161;48.174;11.756;2023-08-06T03:05:02;4.27;;;4.03;;
10232;SDS011;5161;48.174;11.756;2023-08-06T03:07:28;4.33;;;4.03;;
10232;SDS011;5161;48.174;11.756;2023-08-06T03:09:54;4.47;;;4.17;;
10232;SDS011;5161;48.174;11.756;2023-08-06T03:12:20;4.40;;;4.10;;
10232;SDS011;5161;48.174;11.756;2023-08-06T03:14:45;4.70;;;4.30;;
10232;SDS011;5161;48.174;11.756;2023-08-06T03:17:11;4.70;;;4.40;;
10232;SDS011;5161;48.174;11.756;2023-08-06T03:19:36;4.80;;;4.40;;
10232;SDS011;5161;48.174;11.756;2023-08-06T03:22:02;5.47;;;3.97;;
10232;SDS011;5161;48.174;11.756;2023-08-06T03:24:28;4.00;;;3.80;;
10232;SDS011;5161;48.174;11.756;2023-08-06T03:26:53;4.13;;;3.83;;
10232;SDS011;5161;48.174;11.756;2023-08-06T03:29:19;4.23;;;3.93;;
10232;SDS011;5161;48.174;11.756;2023-08-06T03:31:46;3.80;;;3.60;;
10232;SDS011;5161;48.174;11.756;2023-08-06T03:34:11;4.00;;;3.70;;
10232;SDS011;5161;48.174;11.756;2023-08-06T03:36:37;4.03;;;3.70;;
10232;SDS011;5161;48.174;11.756;2023-08-06T03:39:02;4.23;;;3.93;;
10232;SDS011;5161;48.174;11.756;2023-08-06T03:41:28;4.10;;;3.80;;
10232;SDS011;5161;48.174;11.756;2023-08-06T03:43:53;4.03;;;3.80;;
10232;SDS011;5161;48.174;11.756;2023-08-06T03:46:19;4.33;;;3.80;;
10232;SDS011;5161;48.174;11.756;2023-08-06T03:48:45;5.70;;;3.90;;
10232;SDS011;5161;48.174;11.756;2023-08-06T03:51:10;4.07;;;3.87;;
10232;SDS011;5161;48.174;11.756;2023-08-06T03:53:36;4.10;;;3.70;;
10232;SDS011;5161;48.174;11.756;2023-08-06T03:56:01;3.93;;;3.63;;
10232;SDS011;5161;48.174;11.756;2023-08-06T03:58:27;4.10;;;3.80;;
10232;SDS011;5161;48.174;11.756;2023-08-06T04:01:02;3.73;;;3.43;;
10232;SDS011;5161;48.174;11.756;2023-08-06T04:03:28;4.00;;;3.77;;
10232;SDS011;5161;48.174;11.756;2023-08-06T04:05:54;4.07;;;3.40;;
10232;SDS011;5161;48.174;11.756;2023-08-06T04:08:20;3.53;;;3.23;;
10232;SDS011;5161;48.174;11.756;2023-08-06T04:10:48;4.80;;;3.40;;
10232;SDS011;5161;48.174;11.756;2023-08-06T04:13:15;3.50;;;3.20;;
10232;SDS011;5161;48.174;11.756;2023-08-06T04:15:40;3.47;;;3.17;;
10232;SDS011;5161;48.174;11.756;2023-08-06T04:18:06;3.33;;;3.13;;
10232;SDS011;5161;48.174;11.756;2023-08-06T04:20:31;3.70;;;3.40;;
10232;SDS011;5161;48.174;11.756;2023-08-06T04:22:57;3.50;;;3.30;;
10232;SDS011;5161;48.174;11.756;2023-08-06T04:25:22;3.20;;;2.93;;
10232;SDS011;5161;48.174;11.756;2023-08-06T04:27:48;3.43;;;3.23;;
10232;SDS011;5161;48.174;11.756;2023-08-06T04:30:14;4.30;;;3.10;;
10232;SDS011;5161;48.174;11.756;2023-08-06T04:32:39;3.30;;;3.00;;
10232;SDS011;5161;48.174;11.756;2023-08-06T04:35:05;3.23;;;3.07;;
10232;SDS011;5161;48.174;11.756;2023-08-06T04:37:31;3.13;;;3.00;;
10232;SDS011;5161;48.174;11.756;2023-08-06T04:39:56;3.40;;;3.20;;
10232;SDS011;5161;48.174;11.756;2023-08-06T04:42:22;3.50;;;3.20;;
10232;SDS011;5161;48.174;11.756;2023-08-06T04:44:47;3.27;;;3.07;;
10232;SDS011;5161;48.174;11.756;2023-08-06T04:47:13;3.27;;;3.00;;
10232;SDS011;5161;48.174;11.756;2023-08-06T04:49:39;3.27;;;2.90;;
10232;SDS011;5161;48.174;11.756;2023-08-06T04:52:04;3.10;;;2.90;;
10232;SDS011;5161;48.174;11.756;2023-08-06T04:54:30;3.00;;;2.80;;
10232;SDS011;5161;48.174;11.756;2023-08-06T04:56:56;4.23;;;3.30;;
10232;SDS011;5161;48.174;11.756;2023-08-06T04:59:21;3.40;;;3.10;;
10232;SDS011;5161;48.174;11.756;2023-08-06T05:01:47;4.57;;;2.90;;
10232;SDS011;5161;48.174;11.756;2023-08-06T05:04:12;3.13;;;2.83;;
10232;SDS011;5161;48.174;11.756;2023-08-06T05:06:38;2.87;;;2.67;;
10232;SDS011;5161;48.174;11.756;2023-08-06T05:09:04;3.20;;;3.00;;
10232;SDS011;5161;48.174;11.756;2023-08-06T05:11:31;3.23;;;2.60;;
10232;SDS011;5161;48.174;11.756;2023-08-06T05:13:56;2.70;;;2.50;;
10232;SDS011;5161;48.174;11.756;2023-08-06T05:16:22;3.20;;;2.90;;
10232;SDS011;5161;48.174;11.756;2023-08-06T05:18:48;3.20;;;2.90;;
10232;SDS011;5161;48.174;11.756;2023-08-06T05:21:14;2.80;;;2.70;;
10232;SDS011;5161;48.174;11.756;2023-08-06T05:23:41;2.80;;;2.60;;
10232;SDS011;5161;48.174;11.756;2023-08-06T05:26:07;3.00;;;2.70;;
10232;SDS011;5161;48.174;11.756;2023-08-06T05:28:32;5.77;;;2.90;;
10232;SDS011;5161;48.174;11.756;2023-08-06T05:30:59;4.83;;;2.97;;
10232;SDS011;5161;48.174;11.756;2023-08-06T05:33:28;3.27;;;2.97;;
10232;SDS011;5161;48.174;11.756;2023-08-06T05:35:53;3.00;;;2.80;;
10232;SDS011;5161;48.174;11.756;2023-08-06T05:38:19;2.80;;;2.60;;
10232;SDS011;5161;48.174;11.756;2023-08-06T05:40:45;3.03;;;2.83;;
10232;SDS011;5161;48.174;11.756;2023-08-06T05:43:10;3.23;;;2.93;;
10232;SDS011;5161;48.174;11.756;2023-08-06T05:45:36;3.10;;;2.90;;
10232;SDS011;5161;48.174;11.756;2023-08-06T05:48:01;2.93;;;2.73;;
10232;SDS011;5161;48.174;11.756;2023-08-06T05:50:27;3.37;;;2.80;;
10232;SDS011;5161;48.174;11.756;2023-08-06T05:52:52;2.97;;;2.77;;
10232;SDS011;5161;48.174;11.756;2023-08-06T05:55:19;2.57;;;2.47;;
10232;SDS011;5161;48.174;11.756;2023-08-06T05:57:45;2.77;;;2.67;;
10232;SDS011;5161;48.174;11.756;2023-08-06T06:00:11;3.00;;;2.80;;
10232;SDS011;5161;48.174;11.756;2023-08-06T06:02:36;2.77;;;2.67;;
10232;SDS011;5161;48.174;11.756;2023-08-06T06:05:02;2.83;;;2.63;;
10232;SDS011;5161;48.174;11.756;2023-08-06T06:07:28;3.17;;;3.00;;
10232;SDS011;5161;48.174;11.756;2023-08-06T06:09:53;3.00;;;2.80;;
10232;SDS011;5161;48.174;11.756;2023-08-06T06:12:19;2.83;;;2.63;;
10232;SDS011;5161;48.174;11.756;2023-08-06T06:14:44;3.30;;;3.00;;
10232;SDS011;5161;48.174;11.756;2023-08-06T06:17:10;3.00;;;2.80;;
10232;SDS011;5161;48.174;11.756;2023-08-06T06:19:36;5.13;;;2.63;;
10232;SDS011;5161;48.174;11.756;2023-08-06T06:22:02;3.13;;;2.90;;
10232;SDS011;5161;48.174;11.756;2023-08-06T06:24:27;2.63;;;2.50;;
10232;SDS011;5161;48.174;11.756;2023-08-06T06:26:53;2.77;;;2.67;;
10232;SDS011;5161;48.174;11.756;2023-08-06T06:29:18;3.07;;;2.87;;
10232;SDS011;5161;48.174;11.756;2023-08-06T06:31:44;3.13;;;2.40;;
10232;SDS011;5161;48.174;11.756;2023-08-06T06:34:09;2.67;;;2.47;;
10232;SDS011;5161;48.174;11.756;2023-08-06T06:36:35;2.43;;;2.33;;
10232;SDS011;5161;48.174;11.756;2023-08-06T06:39:01;2.93;;;2.60;;
10232;SDS011;5161;48.174;11.756;2023-08-06T06:41:27;2.60;;;2.40;;
10232;SDS011;5161;48.174;11.756;2023-08-06T06:43:54;2.50;;;2.40;;
10232;SDS011;5161;48.174;11.756;2023-08-06T06:46:20;2.60;;;2.40;;
10232;SDS011;5161;48.174;11.756;2023-08-06T06:48:45;2.37;;;2.20;;
10232;SDS011;5161;48.174;11.756;2023-08-06T06:51:11;2.60;;;2.50;;
10232;SDS011;5161;48.174;11.756;2023-08-06T06:53:36;2.77;;;2.53;;
10232;SDS011;5161;48.174;11.756;2023-08-06T06:56:03;2.40;;;2.30;;
10232;SDS011;5161;48.174;11.756;2023-08-06T06:58:30;2.53;;;2.40;;
10232;SDS011;5161;48.174;11.756;2023-08-06T07:00:56;2.50;;;2.40;;
10232;SDS011;5161;48.174;11.756;2023-08-06T07:03:21;2.53;;;2.33;;
10232;SDS011;5161;48.174;11.756;2023-08-06T07:05:47;2.30;;;2.20;;
10232;SDS011;5161;48.174;11.756;2023-08-06T07:08:13;2.37;;;2.17;;
10232;SDS011;5161;48.174;11.756;2023-08-06T07:10:40;2.50;;;2.17;;
10232;SDS011;5161;48.174;11.756;2023-08-06T07:13:06;2.37;;;2.17;;
10232;SDS011;5161;48.174;11.756;2023-08-06T07:15:32;2.53;;;2.33;;
10232;SDS011;5161;48.174;11.756;2023-08-06T07:17:57;2.00;;;1.90;;
10232;SDS011;5161;48.174;11.756;2023-08-06T07:20:23;3.77;;;2.30;;
10232;SDS011;5161;48.174;11.756;2023-08-06T07:22:48;2.23;;;1.90;;
10232;SDS011;5161;48.174;11.756;2023-08-06T07:25:15;2.10;;;2.00;;
10232;SDS011;5161;48.174;11.756;2023-08-06T07:27:41;2.40;;;1.90;;
10232;SDS011;5161;48.174;11.756;2023-08-06T07:30:07;2.20;;;2.00;;
10232;SDS011;5161;48.174;11.756;2023-08-06T07:32:33;1.70;;;1.60;;
10232;SDS011;5161;48.174;11.756;2023-08-06T07:34:59;5.60;;;1.60;;
10232;SDS011;5161;48.174;11.756;2023-08-06T07:37:26;1.70;;;1.60;;
10232;SDS011;5161;48.174;11.756;2023-08-06T07:39:55;1.40;;;1.30;;
10232;SDS011;5161;48.174;11.756;2023-08-06T07:42:21;1.20;;;1.20;;
10232;SDS011;5161;48.174;11.756;2023-08-06T07:44:51;1.70;;;1.20;;
10232;SDS011;5161;48.174;11.756;2023-08-06T07:47:19;2.13;;;1.30;;
10232;SDS011;5161;48.174;11.756;2023-08-06T07:49:45;1.20;;;1.20;;
10232;SDS011;5161;48.174;11.756;2023-08-06T07:52:10;1.30;;;1.23;;
10232;SDS011;5161;48.174;11.756;2023-08-06T07:54:36;1.33;;;1.33;;
10232;SDS011;5161;48.174;11.756;2023-08-06T07:57:02;1.73;;;1.30;;
10232;SDS011;5161;48.174;11.756;2023-08-06T07:59:28;2.13;;;1.20;;
10232;SDS011;5161;48.174;11.756;2023-08-06T08:01:53;1.50;;;1.40;;
10232;SDS011;5161;48.174;11.756;2023-08-06T08:04:19;1.50;;;1.40;;
10232;SDS011;5161;48.174;11.756;2023-08-06T08:06:45;1.67;;;1.57;;
10232;SDS011;5161;48.174;11.756;2023-08-06T08:09:12;2.43;;;1.33;;
10232;SDS011;5161;48.174;11.756;2023-08-06T08:11:38;1.50;;;1.43;;
10232;SDS011;5161;48.174;11.756;2023-08-06T08:14:04;1.40;;;1.30;;
10232;SDS011;5161;48.174;11.756;2023-08-06T08:16:30;4.50;;;1.57;;
10232;SDS011;5161;48.174;11.756;2023-08-06T08:18:55;1.60;;;1.50;;
10232;SDS011;5161;48.174;11.756;2023-08-06T08:21:21;1.40;;;1.30;;
10232;SDS011;5161;48.174;11.756;2023-08-06T08:23:49;2.20;;;1.50;;
10232;SDS011;5161;48.174;11.756;2023-08-06T08:26:14;4.20;;;1.20;;
10232;SDS011;5161;48.174;11.756;2023-08-06T08:28:40;2.20;;;1.40;;
10232;SDS011;5161;48.174;11.756;2023-08-06T08:31:09;1.20;;;1.20;;
10232;SDS011;5161;48.174;11.756;2023-08-06T08:33:36;1.40;;;1.40;;
10232;SDS011;5161;48.174;11.756;2023-08-06T08:36:02;2.73;;;1.40;;
10232;SDS011;5161;48.174;11.756;2023-08-06T08:38:27;1.50;;;1.40;;
10232;SDS011;5161;48.174;11.756;2023-08-06T08:40:53;1.10;;;1.10;;
10232;SDS011;5161;48.174;11.756;2023-08-06T08:43:23;1.50;;;1.40;;
10232;SDS011;5161;48.174;11.756;2023-08-06T08:45:52;1.97;;;1.23;;
10232;SDS011;5161;48.174;11.756;2023-08-06T08:48:25;1.10;;;1.10;;
10232;SDS011;5161;48.174;11.756;2023-08-06T08:50:54;2.53;;;1.20;;
10232;SDS011;5161;48.174;11.756;2023-08-06T08:53:21;1.57;;;1.10;;
10232;SDS011;5161;48.174;11.756;2023-08-06T08:55:47;2.03;;;1.20;;
10232;SDS011;5161;48.174;11.756;2023-08-06T08:58:14;1.00;;;1.00;;
10232;SDS011;5161;48.174;11.756;2023-08-06T09:00:43;1.10;;;1.10;;
10232;SDS011;5161;48.174;11.756;2023-08-06T09:03:13;1.10;;;1.10;;
10232;SDS011;5161;48.174;11.756;2023-08-06T09:05:41;1.40;;;1.30;;
10232;SDS011;5161;48.174;11.756;2023-08-06T09:08:15;1.70;;;1.30;;
10232;SDS011;5161;48.174;11.756;2023-08-06T09:10:44;1.20;;;1.20;;
10232;SDS011;5161;48.174;11.756;2023-08-06T09:13:12;1.10;;;1.10;;
10232;SDS011;5161;48.174;11.756;2023-08-06T09:15:38;1.20;;;1.20;;
10232;SDS011;5161;48.174;11.756;2023-08-06T09:18:11;1.10;;;1.10;;
10232;SDS011;5161;48.174;11.756;2023-08-06T09:20:38;2.70;;;1.30;;
10232;SDS011;5161;48.174;11.756;2023-08-06T09:23:10;1.23;;;1.20;;
10232;SDS011;5161;48.174;11.756;2023-08-06T09:25:37;1.47;;;1.37;;
10232;SDS011;5161;48.174;11.756;2023-08-06T09:28:06;1.03;;;1.03;;
10232;SDS011;5161;48.174;11.756;2023-08-06T09:30:33;1.10;;;1.10;;
10232;SDS011;5161;48.174;11.756;2023-08-06T09:32:59;2.30;;;1.00;;
10232;SDS011;5161;48.174;11.756;2023-08-06T09:35:29;2.13;;;1.00;;
10232;SDS011;5161;48.174;11.756;2023-08-06T09:38:03;1.00;;;1.00;;
10232;SDS011;5161;48.174;11.756;2023-08-06T09:40:32;0.93;;;0.93;;
10232;SDS011;5161;48.174;11.756;2023-08-06T09:42:58;0.90;;;0.90;;
10232;SDS011;5161;48.174;11.756;2023-08-06T09:47:58;1.10;;;1.10;;
10232;SDS011;5161;48.174;11.756;2023-08-06T09:50:28;0.70;;;0.70;;
10232;SDS011;5161;48.174;11.756;2023-08-06T09:52:56;0.90;;;0.87;;
10232;SDS011;5161;48.174;11.756;2023-08-06T09:55:22;0.97;;;0.97;;
10232;SDS011;5161;48.174;11.756;2023-08-06T09:57:50;0.93;;;0.93;;
10232;SDS011;5161;48.174;11.756;2023-08-06T10:00:16;1.10;;;1.00;;
10232;SDS011;5161;48.174;11.756;2023-08-06T10:02:42;1.00;;;1.00;;
10232;SDS011;5161;48.174;11.756;2023-08-06T10:05:08;0.87;;;0.87;;
10232;SDS011;5161;48.174;11.756;2023-08-06T10:07:34;0.97;;;0.97;;
10232;SDS011;5161;48.174;11.756;2023-08-06T10:10:01;0.73;;;0.73;;
10232;SDS011;5161;48.174;11.756;2023-08-06T10:12:32;0.83;;;0.60;;
10232;SDS011;5161;48.174;11.756;2023-08-06T10:15:01;0.80;;;0.80;;
10232;SDS011;5161;48.174;11.756;2023-08-06T10:17:31;0.70;;;0.70;;
10232;SDS011;5161;48.174;11.756;2023-08-06T10:19:59;1.10;;;0.70;;
10232;SDS011;5161;48.174;11.756;2023-08-06T10:22:25;2.93;;;0.70;;
10232;SDS011;5161;48.174;11.756;2023-08-06T10:27:35;0.70;;;0.70;;
10232;SDS011;5161;48.174;11.756;2023-08-06T10:32:47;0.70;;;0.70;;
10232;SDS011;5161;48.174;11.756;2023-08-06T10:35:30;1.10;;;0.80;;
10232;SDS011;5161;48.174;11.756;2023-08-06T10:40:31;1.00;;;1.00;;
10232;SDS011;5161;48.174;11.756;2023-08-06T10:43:00;0.97;;;0.80;;
10232;SDS011;5161;48.174;11.756;2023-08-06T10:45:27;2.37;;;0.70;;
10232;SDS011;5161;48.174;11.756;2023-08-06T10:47:56;0.77;;;0.70;;
10232;SDS011;5161;48.174;11.756;2023-08-06T10:50:25;0.97;;;0.80;;
10232;SDS011;5161;48.174;11.756;2023-08-06T10:52:51;0.77;;;0.77;;
10232;SDS011;5161;48.174;11.756;2023-08-06T10:55:24;0.70;;;0.70;;
10232;SDS011;5161;48.174;11.756;2023-08-06T10:57:54;0.70;;;0.70;;
10232;SDS011;5161;48.174;11.756;2023-08-06T11:00:20;2.53;;;0.80;;
10232;SDS011;5161;48.174;11.756;2023-08-06T11:02:49;0.87;;;0.70;;
10232;SDS011;5161;48.174;11.756;2023-08-06T11:05:16;1.67;;;0.80;;
10232;SDS011;5161;48.174;11.756;2023-08-06T11:07:42;5.13;;;0.70;;
10232;SDS011;5161;48.174;11.756;2023-08-06T11:10:09;0.90;;;0.90;;
10232;SDS011;5161;48.174;11.756;2023-08-06T11:12:36;0.80;;;0.80;;
10232;SDS011;5161;48.174;11.756;2023-08-06T11:15:02;0.80;;;0.80;;
10232;SDS011;5161;48.174;11.756;2023-08-06T11:17:29;1.53;;;0.70;;
10232;SDS011;5161;48.174;11.756;2023-08-06T11:19:58;1.70;;;0.90;;
10232;SDS011;5161;48.174;11.756;2023-08-06T11:22:26;0.70;;;0.70;;
10232;SDS011;5161;48.174;11.756;2023-08-06T11:24:52;0.60;;;0.60;;
10232;SDS011;5161;48.174;11.756;2023-08-06T11:27:18;0.70;;;0.70;;
10232;SDS011;5161;48.174;11.756;2023-08-06T11:29:44;1.00;;;1.00;;
10232;SDS011;5161;48.174;11.756;2023-08-06T11:32:10;1.30;;;1.20;;
10232;SDS011;5161;48.174;11.756;2023-08-06T11:34:36;1.00;;;1.00;;
10232;SDS011;5161;48.174;11.756;2023-08-06T11:37:03;0.60;;;0.60;;
10232;SDS011;5161;48.174;11.756;2023-08-06T11:39:34;1.53;;;0.50;;
10232;SDS011;5161;48.174;11.756;2023-08-06T11:42:05;0.70;;;0.70;;
10232;SDS011;5161;48.174;11.756;2023-08-06T11:44:31;0.60;;;0.60;;
10232;SDS011;5161;48.174;11.756;2023-08-06T11:47:00;0.80;;;0.70;;
10232;SDS011;5161;48.174;11.756;2023-08-06T11:52:19;0.90;;;0.67;;
10232;SDS011;5161;48.174;11.756;2023-08-06T11:54:59;0.90;;;0.73;;
10232;SDS011;5161;48.174;11.756;2023-08-06T11:57:28;0.60;;;0.60;;
10232;SDS011;5161;48.174;11.756;2023-08-06T11:59:57;0.60;;;0.60;;
10232;SDS011;5161;48.174;11.756;2023-08-06T12:02:27;0.60;;;0.60;;
10232;SDS011;5161;48.174;11.756;2023-08-06T12:04:59;0.60;;;0.60;;
10232;SDS011;5161;48.174;11.756;2023-08-06T12:07:30;1.40;;;0.83;;
10232;SDS011;5161;48.174;11.756;2023-08-06T12:09:57;0.60;;;0.60;;
10232;SDS011;5161;48.174;11.756;2023-08-06T12:12:24;1.03;;;0.60;;
10232;SDS011;5161;48.174;11.756;2023-08-06T12:14:50;0.70;;;0.70;;
10232;SDS011;5161;48.174;11.756;2023-08-06T12:17:16;0.60;;;0.60;;
10232;SDS011;5161;48.174;11.756;2023-08-06T12:19:42;0.60;;;0.60;;
10232;SDS011;5161;48.174;11.756;2023-08-06T12:22:09;0.60;;;0.60;;
10232;SDS011;5161;48.174;11.756;2023-08-06T12:24:34;0.77;;;0.70;;
10232;SDS011;5161;48.174;11.756;2023-08-06T12:27:00;0.80;;;0.80;;
10232;SDS011;5161;48.174;11.756;2023-08-06T12:29:27;0.70;;;0.70;;
10232;SDS011;5161;48.174;11.756;2023-08-06T12:31:53;0.63;;;0.63;;
10232;SDS011;5161;48.174;11.756;2023-08-06T12:34:18;1.63;;;0.60;;
10232;SDS011;5161;48.174;11.756;2023-08-06T12:36:44;0.60;;;0.60;;
10232;SDS011;5161;48.174;11.756;2023-08-06T12:39:10;0.50;;;0.50;;
10232;SDS011;5161;48.174;11.756;2023-08-06T12:41:35;0.60;;;0.60;;
10232;SDS011;5161;48.174;11.756;2023-08-06T12:44:01;0.70;;;0.70;;
10232;SDS011;5161;48.174;11.756;2023-08-06T12:46:34;0.67;;;0.67;;
10232;SDS011;5161;48.174;11.756;2023-08-06T12:49:09;0.80;;;0.80;;
10232;SDS011;5161;48.174;11.756;2023-08-06T12:51:37;0.80;;;0.80;;
10232;SDS011;5161;48.174;11.756;2023-08-06T12:54:05;1.30;;;1.30;;
10232;SDS011;5161;48.174;11.756;2023-08-06T12:56:31;1.00;;;0.90;;
10232;SDS011;5161;48.174;11.756;2023-08-06T12:58:57;0.80;;;0.80;;
10232;SDS011;5161;48.174;11.756;2023-08-06T13:01:22;1.00;;;0.90;;
10232;SDS011;5161;48.174;11.756;2023-08-06T13:03:48;0.80;;;0.80;;
10232;SDS011;5161;48.174;11.756;2023-08-06T13:06:13;0.80;;;0.80;;
10232;SDS011;5161;48.174;11.756;2023-08-06T13:08:39;0.90;;;0.90;;
10232;SDS011;5161;48.174;11.756;2023-08-06T13:11:04;0.80;;;0.80;;
10232;SDS011;5161;48.174;11.756;2023-08-06T13:13:30;0.90;;;0.90;;
10232;SDS011;5161;48.174;11.756;2023-08-06T13:15:56;0.80;;;0.80;;
10232;SDS011;5161;48.174;11.756;2023-08-06T13:18:21;0.70;;;0.70;;
10232;SDS011;5161;48.174;11.756;2023-08-06T13:20:47;0.60;;;0.60;;
10232;SDS011;5161;48.174;11.756;2023-08-06T13:23:17;0.60;;;0.60;;
10232;SDS011;5161;48.174;11.756;2023-08-06T13:25:42;0.70;;;0.70;;
10232;SDS011;5161;48.174;11.756;2023-08-06T13:28:08;2.57;;;0.70;;
10232;SDS011;5161;48.174;11.756;2023-08-06T13:30:34;0.57;;;0.57;;
10232;SDS011;5161;48.174;11.756;2023-08-06T13:33:06;0.70;;;0.70;;
10232;SDS011;5161;48.174;11.756;2023-08-06T13:35:32;0.70;;;0.70;;
10232;SDS011;5161;48.174;11.756;2023-08-06T13:37:58;0.70;;;0.70;;
10232;SDS011;5161;48.174;11.756;2023-08-06T13:40:23;0.70;;;0.70;;
10232;SDS011;5161;48.174;11.756;2023-08-06T13:42:59;0.80;;;0.80;;
10232;SDS011;5161;48.174;11.756;2023-08-06T13:45:28;0.97;;;0.70;;
10232;SDS011;5161;48.174;11.756;2023-08-06T13:48:00;0.70;;;0.70;;
10232;SDS011;5161;48.174;11.756;2023-08-06T13:50:28;0.70;;;0.70;;
10232;SDS011;5161;48.174;11.756;2023-08-06T13:52:54;0.70;;;0.70;;
10232;SDS011;5161;48.174;11.756;2023-08-06T13:55:20;0.70;;;0.70;;
10232;SDS011;5161;48.174;11.756;2023-08-06T13:57:47;0.70;;;0.70;;
10232;SDS011;5161;48.174;11.756;2023-08-06T14:00:12;0.70;;;0.70;;
10232;SDS011;5161;48.174;11.756;2023-08-06T14:02:38;0.73;;;0.73;;
10232;SDS011;5161;48.174;11.756;2023-08-06T14:05:04;0.70;;;0.70;;
10232;SDS011;5161;48.174;11.756;2023-08-06T14:07:30;0.70;;;0.70;;
10232;SDS011;5161;48.174;11.756;2023-08-06T14:09:55;0.80;;;0.80;;
10232;SDS011;5161;48.174;11.756;2023-08-06T14:12:22;0.90;;;0.90;;
10232;SDS011;5161;48.174;11.756;2023-08-06T14:14:48;0.77;;;0.77;;
10232;SDS011;5161;48.174;11.756;2023-08-06T14:17:14;0.60;;;0.60;;
10232;SDS011;5161;48.174;11.756;2023-08-06T14:19:40;0.70;;;0.70;;
10232;SDS011;5161;48.174;11.756;2023-08-06T14:22:06;0.80;;;0.80;;
10232;SDS011;5161;48.174;11.756;2023-08-06T14:24:31;0.90;;;0.90;;
10232;SDS011;5161;48.174;11.756;2023-08-06T14:26:57;0.70;;;0.70;;
10232;SDS011;5161;48.174;11.756;2023-08-06T14:29:22;0.80;;;0.80;;
10232;SDS011;5161;48.174;11.756;2023-08-06T14:31:49;0.87;;;0.70;;
10232;SDS011;5161;48.174;11.756;2023-08-06T14:34:15;0.60;;;0.60;;
10232;SDS011;5161;48.174;11.756;2023-08-06T14:36:41;0.70;;;0.70;;
10232;SDS011;5161;48.174;11.756;2023-08-06T14:39:06;0.70;;;0.70;;
10232;SDS011;5161;48.174;11.756;2023-08-06T14:41:32;0.80;;;0.80;;
10232;SDS011;5161;48.174;11.756;2023-08-06T14:43:58;0.80;;;0.80;;
10232;SDS011;5161;48.174;11.756;2023-08-06T14:46:26;0.93;;;0.80;;
10232;SDS011;5161;48.174;11.756;2023-08-06T14:48:51;0.87;;;0.87;;
10232;SDS011;5161;48.174;11.756;2023-08-06T14:51:17;0.70;;;0.70;;
10232;SDS011;5161;48.174;11.756;2023-08-06T14:53:46;0.80;;;0.80;;
10232;SDS011;5161;48.174;11.756;2023-08-06T14:56:11;0.83;;;0.80;;
10232;SDS011;5161;48.174;11.756;2023-08-06T14:58:37;1.87;;;0.90;;
10232;SDS011;5161;48.174;11.756;2023-08-06T15:01:02;2.57;;;0.90;;
10232;SDS011;5161;48.174;11.756;2023-08-06T15:03:28;1.00;;;1.00;;